createdAt,value
2023-01-12T00:01:56.976Z,7.65
2023-01-12T00:04:24.242Z,6.38
2023-01-12T00:06:51.143Z,7.35
2023-01-12T00:09:18.118Z,5.88
2023-01-12T00:11:44.889Z,7.60
2023-01-12T00:14:11.696Z,7.88
2023-01-12T00:16:38.686Z,5.75
2023-01-12T00:19:08.562Z,9.60
2023-01-12T00:21:39.564Z,6.78
2023-01-12T00:24:08.575Z,6.40
2023-01-12T00:26:35.404Z,7.30
2023-01-12T00:29:02.266Z,5.85
2023-01-12T00:31:29.210Z,6.18
2023-01-12T00:33:55.994Z,8.77
2023-01-12T00:36:22.916Z,5.35
2023-01-12T00:38:49.647Z,5.25
2023-01-12T00:41:35.172Z,6.50
2023-01-12T00:44:20.470Z,7.20
2023-01-12T00:46:47.527Z,8.27
2023-01-12T00:49:14.381Z,10.48
2023-01-12T00:51:41.461Z,7.05
2023-01-12T00:54:08.970Z,6.90
2023-01-12T00:56:36.379Z,5.18
2023-01-12T00:59:03.768Z,6.57
2023-01-12T01:01:31.600Z,5.43
2023-01-12T01:03:58.473Z,8.07
2023-01-12T01:06:26.361Z,7.43
2023-01-12T01:08:53.269Z,7.07
2023-01-12T01:11:20.092Z,7.88
2023-01-12T01:13:46.846Z,8.40
2023-01-12T01:16:15.986Z,7.55
2023-01-12T01:18:43.230Z,8.02
2023-01-12T01:21:12.200Z,6.72
2023-01-12T01:23:40.368Z,5.63
2023-01-12T01:26:11.356Z,7.32
2023-01-12T01:28:38.260Z,6.45
2023-01-12T01:31:07.848Z,8.77
2023-01-12T01:33:35.172Z,7.40
2023-01-12T01:36:02.493Z,7.00
2023-01-12T01:38:29.532Z,8.73
2023-01-12T01:40:56.393Z,7.63
2023-01-12T01:43:26.074Z,6.25
2023-01-12T01:46:11.842Z,8.02
2023-01-12T01:48:40.452Z,8.23
2023-01-12T01:51:11.576Z,5.47
2023-01-12T01:53:41.970Z,6.60
2023-01-12T01:56:13.158Z,7.93
2023-01-12T01:58:44.295Z,8.23
2023-01-12T02:01:11.255Z,7.53
2023-01-12T02:03:40.173Z,8.25
2023-01-12T02:06:08.614Z,8.02
2023-01-12T02:08:45.641Z,8.30
2023-01-12T02:11:31.859Z,7.57
2023-01-12T02:14:17.125Z,6.15
2023-01-12T02:17:28.616Z,6.63
2023-01-12T02:20:04.612Z,4.68
2023-01-12T02:22:55.910Z,5.72
2023-01-12T02:25:31.391Z,8.98
2023-01-12T02:28:26.580Z,7.82
2023-01-12T02:31:15.359Z,9.00
2023-01-12T02:33:54.419Z,7.70
2023-01-12T02:36:35.922Z,5.63
2023-01-12T02:42:36.770Z,8.30
2023-01-12T02:45:06.535Z,6.78
2023-01-12T02:47:47.145Z,6.68
2023-01-12T02:50:25.537Z,8.15
2023-01-12T02:52:59.353Z,7.07
2023-01-12T02:55:28.694Z,5.13
2023-01-12T02:57:57.354Z,4.95
2023-01-12T03:00:24.889Z,6.55
2023-01-12T03:02:51.657Z,6.07
2023-01-12T03:05:26.498Z,5.90
2023-01-12T03:08:05.418Z,6.70
2023-01-12T03:10:38.357Z,5.82
2023-01-12T03:13:10.058Z,6.45
2023-01-12T03:15:41.135Z,6.07
2023-01-12T03:18:14.656Z,5.45
2023-01-12T03:20:49.961Z,6.72
2023-01-12T03:23:24.100Z,5.78
2023-01-12T03:25:53.878Z,5.00
2023-01-12T03:28:22.807Z,3.83
2023-01-12T03:30:58.146Z,6.32
2023-01-12T03:33:26.137Z,4.25
2023-01-12T03:36:33.699Z,5.05
2023-01-12T03:39:09.744Z,6.10
2023-01-12T03:42:12.023Z,5.95
2023-01-12T03:45:00.915Z,6.75
2023-01-12T03:47:30.597Z,5.10
2023-01-12T03:50:18.938Z,4.15
2023-01-12T03:52:47.761Z,5.40
2023-01-12T03:55:17.997Z,4.22
2023-01-12T03:57:46.217Z,2.90
2023-01-12T04:00:14.877Z,4.40
2023-01-12T04:02:45.357Z,5.22
2023-01-12T04:05:14.190Z,5.20
2023-01-12T04:07:41.355Z,8.90
2023-01-12T04:10:08.757Z,3.97
2023-01-12T04:12:35.567Z,4.13
2023-01-12T04:15:02.387Z,6.20
2023-01-12T04:17:29.299Z,4.88
2023-01-12T04:19:56.231Z,3.85
2023-01-12T04:22:41.728Z,5.47
2023-01-12T04:25:10.066Z,3.25
2023-01-12T04:27:40.697Z,4.63
2023-01-12T04:30:08.262Z,3.90
2023-01-12T04:32:35.022Z,4.97
2023-01-12T04:35:01.925Z,4.50
2023-01-12T04:37:28.688Z,2.58
2023-01-12T04:39:55.872Z,3.38
2023-01-12T04:42:41.501Z,5.65
2023-01-12T04:45:08.979Z,4.95
2023-01-12T04:47:35.739Z,5.03
2023-01-12T04:50:02.825Z,5.28
2023-01-12T04:52:29.575Z,4.18
2023-01-12T04:54:56.994Z,5.15
2023-01-12T04:57:24.279Z,3.35
2023-01-12T04:59:51.081Z,3.55
2023-01-12T05:02:17.845Z,3.30
2023-01-12T05:04:47.156Z,3.50
2023-01-12T05:07:14.788Z,4.72
2023-01-12T05:10:00.311Z,3.70
2023-01-12T05:12:27.795Z,5.00
2023-01-12T05:14:54.797Z,4.40
2023-01-12T05:17:21.864Z,2.22
2023-01-12T05:19:49.760Z,5.43
2023-01-12T05:22:16.650Z,3.63
2023-01-12T05:24:43.424Z,5.72
2023-01-12T05:27:10.323Z,2.67
2023-01-12T05:29:37.169Z,4.05
2023-01-12T05:32:04.218Z,6.68
2023-01-12T05:34:30.955Z,4.45
2023-01-12T05:36:57.840Z,3.20
2023-01-12T05:39:24.743Z,2.67
2023-01-12T05:42:10.041Z,2.53
2023-01-12T05:44:36.877Z,2.55
2023-01-12T05:47:03.682Z,3.38
2023-01-12T05:49:30.608Z,4.68
2023-01-12T05:51:57.379Z,3.17
2023-01-12T05:54:24.258Z,4.20
2023-01-12T05:56:51.293Z,4.78
2023-01-12T05:59:18.300Z,2.53
2023-01-12T06:01:45.083Z,2.83
2023-01-12T06:04:12.042Z,3.25
2023-01-12T06:06:38.807Z,2.78
2023-01-12T06:09:05.941Z,2.40
2023-01-12T06:11:51.296Z,3.90
2023-01-12T06:14:18.305Z,2.72
2023-01-12T06:16:45.415Z,2.95
2023-01-12T06:19:13.281Z,1.25
2023-01-12T06:21:40.755Z,2.20
2023-01-12T06:24:07.833Z,2.58
2023-01-12T06:26:34.778Z,2.50
2023-01-12T06:29:03.499Z,2.28
2023-01-12T06:31:30.838Z,3.17
2023-01-12T06:33:57.706Z,2.58
2023-01-12T06:36:24.664Z,4.00
2023-01-12T06:38:51.428Z,3.15
2023-01-12T06:41:37.267Z,2.65
2023-01-12T06:44:04.431Z,3.25
2023-01-12T06:46:31.257Z,1.23
2023-01-12T06:48:58.776Z,0.80
2023-01-12T06:51:26.184Z,2.05
2023-01-12T06:53:53.136Z,4.13
2023-01-12T06:56:20.646Z,2.72
2023-01-12T06:58:47.490Z,2.47
2023-01-12T07:01:14.622Z,1.40
2023-01-12T07:03:41.636Z,2.22
2023-01-12T07:06:08.607Z,2.40
2023-01-12T07:08:35.744Z,7.50
2023-01-12T07:11:04.469Z,2.28
2023-01-12T07:13:32.870Z,3.95
2023-01-12T07:16:01.175Z,1.05
2023-01-12T07:18:28.863Z,1.40
2023-01-12T07:20:55.843Z,1.67
2023-01-12T07:23:22.692Z,1.83
2023-01-12T07:25:49.636Z,1.58
2023-01-12T07:28:16.514Z,1.27
2023-01-12T07:30:43.701Z,1.15
2023-01-12T07:33:12.625Z,0.80
2023-01-12T07:35:40.576Z,2.10
2023-01-12T07:38:07.809Z,2.15
2023-01-12T07:40:34.935Z,1.95
2023-01-12T07:43:03.898Z,2.05
2023-01-12T07:45:30.893Z,3.00
2023-01-12T07:47:58.155Z,1.92
2023-01-12T07:50:26.677Z,3.22
2023-01-12T07:52:54.390Z,5.25
2023-01-12T07:55:21.525Z,4.50
2023-01-12T07:58:00.632Z,5.15
2023-01-12T08:00:28.286Z,2.72
2023-01-12T08:02:56.197Z,2.78
2023-01-12T08:05:23.451Z,3.55
2023-01-12T08:07:50.315Z,2.90
2023-01-12T08:10:17.228Z,4.15
2023-01-12T08:12:44.113Z,2.85
2023-01-12T08:15:12.407Z,2.88
2023-01-12T08:17:48.425Z,3.88
2023-01-12T08:20:38.697Z,2.83
2023-01-12T08:23:32.661Z,4.57
2023-01-12T08:26:04.329Z,4.28
2023-01-12T08:28:38.093Z,2.70
2023-01-12T08:31:09.367Z,3.33
2023-01-12T08:33:37.469Z,4.65
2023-01-12T13:09:25.315Z,4.30
2023-01-12T13:12:09.268Z,5.60
2023-01-12T13:14:38.619Z,4.72
2023-01-12T13:17:21.047Z,3.40
2023-01-12T13:20:02.156Z,3.13
2023-01-12T13:22:44.324Z,3.63
2023-01-12T13:25:17.160Z,5.20
2023-01-12T13:27:57.649Z,2.22
2023-01-12T13:30:30.101Z,3.45
2023-01-12T13:33:13.966Z,3.60
2023-01-12T13:35:40.862Z,2.78
2023-01-12T13:38:38.956Z,4.28
2023-01-12T13:41:15.128Z,3.45
2023-01-12T13:43:54.289Z,5.15
2023-01-12T13:46:28.861Z,3.95
2023-01-12T13:48:56.391Z,2.08
2023-01-12T13:51:26.105Z,3.95
2023-01-12T13:54:01.367Z,3.00
2023-01-12T13:56:28.433Z,2.95
2023-01-12T13:59:03.872Z,3.00
2023-01-12T14:01:36.107Z,2.38
2023-01-12T14:04:17.384Z,3.90
2023-01-12T14:06:45.565Z,2.47
2023-01-12T14:09:24.968Z,2.08
2023-01-12T14:12:11.240Z,2.05
2023-01-12T14:15:10.940Z,2.17
2023-01-12T14:17:52.499Z,2.15
2023-01-12T14:22:47.661Z,2.25
2023-01-12T14:25:22.845Z,3.42
2023-01-12T14:27:57.349Z,2.30
2023-01-12T14:30:27.540Z,2.33
2023-01-12T14:32:55.175Z,1.27
2023-01-12T14:35:23.920Z,2.33
2023-01-12T14:38:00.595Z,3.53
2023-01-12T14:40:33.511Z,3.50
2023-01-12T14:43:20.497Z,1.83
2023-01-12T14:46:19.560Z,1.83
2023-01-12T14:49:00.902Z,2.00
2023-01-12T14:51:38.424Z,2.60
2023-01-12T14:54:05.600Z,3.20
2023-01-12T14:56:50.479Z,2.10
2023-01-12T14:59:23.482Z,2.80
2023-01-12T15:01:52.730Z,1.98
2023-01-12T15:04:23.078Z,2.85
2023-01-12T15:07:02.341Z,1.55
2023-01-12T15:09:32.346Z,1.40
2023-01-12T15:11:59.566Z,2.15
2023-01-12T15:14:29.285Z,2.50
2023-01-12T15:17:14.664Z,1.48
2023-01-12T15:20:00.043Z,1.52
2023-01-12T15:22:47.184Z,1.65
2023-01-12T15:25:36.884Z,1.25
2023-01-12T15:28:07.533Z,1.05
2023-01-12T15:30:37.755Z,3.10
2023-01-12T15:33:05.002Z,1.80
2023-01-12T15:35:32.575Z,2.15
2023-01-12T15:37:59.577Z,1.08
2023-01-12T15:40:27.785Z,2.05
2023-01-12T15:45:32.657Z,1.67
2023-01-12T15:47:59.521Z,1.98
2023-01-12T15:50:53.145Z,1.88
2023-01-12T15:53:22.990Z,1.45
2023-01-12T15:55:49.992Z,2.03
2023-01-12T15:58:17.584Z,5.10
2023-01-12T16:00:45.145Z,2.15
2023-01-12T16:03:28.976Z,2.15
2023-01-12T16:06:00.048Z,3.83
2023-01-12T16:08:26.787Z,1.00
2023-01-12T16:11:09.374Z,14.15
2023-01-12T16:13:36.208Z,2.30
2023-01-12T16:16:03.057Z,2.25
2023-01-12T16:18:30.031Z,1.85
2023-01-12T16:21:01.337Z,1.58
2023-01-12T16:23:28.698Z,1.15
2023-01-12T16:25:59.043Z,1.17
2023-01-12T16:28:27.011Z,1.83
2023-01-12T16:30:55.019Z,1.33
2023-01-12T16:33:22.412Z,2.58
2023-01-12T16:35:49.243Z,1.33
2023-01-12T16:38:18.365Z,1.42
2023-01-12T16:40:45.382Z,2.15
2023-01-12T16:43:12.558Z,1.63
2023-01-12T16:45:42.840Z,2.20
2023-01-12T16:48:09.722Z,2.38
2023-01-12T16:50:40.718Z,1.25
2023-01-12T16:53:08.546Z,1.17
2023-01-12T16:55:37.981Z,2.33
2023-01-12T16:58:06.175Z,1.42
2023-01-12T17:00:35.937Z,1.15
2023-01-12T17:03:03.295Z,0.88
2023-01-12T17:05:30.806Z,0.88
2023-01-12T17:07:57.662Z,1.10
2023-01-12T17:10:24.918Z,2.70
2023-01-12T17:12:56.931Z,1.67
2023-01-12T17:15:27.578Z,1.48
2023-01-12T17:17:55.699Z,1.58
2023-01-12T17:20:22.808Z,0.95
2023-01-12T17:22:49.980Z,0.95
2023-01-12T17:25:17.000Z,1.42
2023-01-12T17:27:43.966Z,0.77
2023-01-12T17:30:11.506Z,0.80
2023-01-12T17:32:38.610Z,1.45
2023-01-12T17:35:09.261Z,1.15
2023-01-12T17:37:36.498Z,1.67
2023-01-12T17:40:04.119Z,1.27
2023-01-12T17:42:49.505Z,1.27
2023-01-12T17:45:16.557Z,2.55
2023-01-12T17:47:43.605Z,1.15
2023-01-12T17:50:11.240Z,1.92
2023-01-12T17:52:38.217Z,0.60
2023-01-12T17:55:06.079Z,2.53
2023-01-12T17:57:32.906Z,0.90
2023-01-12T17:59:59.887Z,0.85
2023-01-12T18:02:26.918Z,1.10
2023-01-12T18:04:53.690Z,0.82
2023-01-12T18:07:20.567Z,1.00
2023-01-12T18:09:47.409Z,0.77
2023-01-12T18:12:16.422Z,2.38
2023-01-12T18:14:43.311Z,0.80
2023-01-12T18:17:11.363Z,1.52
2023-01-12T18:19:38.940Z,0.80
2023-01-12T18:22:07.107Z,0.77
2023-01-12T18:24:34.514Z,1.25
2023-01-12T18:27:01.740Z,1.67
2023-01-12T18:29:29.084Z,2.08
2023-01-12T18:31:55.916Z,0.88
2023-01-12T18:34:22.969Z,1.13
2023-01-12T18:36:49.884Z,1.38
2023-01-12T18:39:18.833Z,0.70
2023-01-12T18:42:05.207Z,0.85
2023-01-12T18:44:35.416Z,0.90
2023-01-12T18:47:21.353Z,0.98
2023-01-12T18:49:50.832Z,0.80
2023-01-12T18:52:37.056Z,1.15
2023-01-12T18:55:05.283Z,3.28
2023-01-12T18:57:32.620Z,3.25
2023-01-12T19:00:16.879Z,0.90
2023-01-12T19:02:44.500Z,1.17
2023-01-12T19:05:13.135Z,0.68
2023-01-12T19:07:52.198Z,1.10
2023-01-12T19:10:19.021Z,1.70
2023-01-12T19:12:46.084Z,0.90
2023-01-12T19:15:32.404Z,0.95
2023-01-12T19:18:00.203Z,1.45
2023-01-12T19:20:29.638Z,1.75
2023-01-12T19:23:15.712Z,2.65
2023-01-12T19:26:00.984Z,1.08
2023-01-12T19:28:35.509Z,1.58
2023-01-12T19:31:05.929Z,2.58
2023-01-12T19:33:33.414Z,0.98
2023-01-12T19:36:06.144Z,1.20
2023-01-12T19:38:33.074Z,0.88
2023-01-12T19:41:12.219Z,1.20
2023-01-12T19:43:45.014Z,1.20
2023-01-12T19:46:13.245Z,0.73
2023-01-12T19:48:40.128Z,1.02
2023-01-12T19:51:10.593Z,0.70
2023-01-12T19:53:40.132Z,0.90
2023-01-12T19:56:11.522Z,0.80
2023-01-12T20:01:05.423Z,1.73
2023-01-12T20:03:32.405Z,1.45
2023-01-12T20:05:59.229Z,1.65
2023-01-12T20:08:26.085Z,1.50
2023-01-12T20:10:58.387Z,1.92
2023-01-12T20:13:26.261Z,0.70
2023-01-12T20:15:54.600Z,0.88
2023-01-12T20:18:21.559Z,0.90
2023-01-12T20:20:50.740Z,0.85
2023-01-12T20:23:19.902Z,1.13
2023-01-12T20:25:46.695Z,0.93
2023-01-12T20:28:14.511Z,1.80
2023-01-12T20:30:42.811Z,1.33
2023-01-12T20:33:10.770Z,0.80
2023-01-12T20:35:42.989Z,0.90
2023-01-12T20:38:15.489Z,0.98
2023-01-12T20:40:44.365Z,2.00
2023-01-12T20:43:11.143Z,1.08
2023-01-12T20:45:41.431Z,1.60
2023-01-12T20:48:08.655Z,1.48
2023-01-12T20:50:35.964Z,1.08
2023-01-12T20:53:03.443Z,1.38
2023-01-12T20:55:30.289Z,0.73
2023-01-12T20:57:57.118Z,1.13
2023-01-12T21:00:24.279Z,1.85
2023-01-12T21:02:51.209Z,1.20
2023-01-12T21:05:18.080Z,1.70
2023-01-12T21:07:44.840Z,1.33
2023-01-12T21:10:12.108Z,1.42
2023-01-12T21:12:38.996Z,1.20
2023-01-12T21:15:06.447Z,1.10
2023-01-12T21:17:35.467Z,1.00
2023-01-12T21:20:02.415Z,1.02
2023-01-12T21:22:29.312Z,0.88
2023-01-12T21:24:56.111Z,1.17
2023-01-12T21:27:23.074Z,1.10
2023-01-12T21:29:49.976Z,1.33
2023-01-12T21:32:17.007Z,0.90
2023-01-12T21:34:43.843Z,0.95
2023-01-12T21:37:11.173Z,0.80
2023-01-12T21:39:38.026Z,0.80
2023-01-12T21:42:23.578Z,1.50
2023-01-12T21:44:50.399Z,1.30
2023-01-12T21:47:17.170Z,1.92
2023-01-12T21:49:43.979Z,1.67
2023-01-12T21:52:11.278Z,1.13
2023-01-12T21:54:38.223Z,2.08
2023-01-12T21:57:05.273Z,1.30
2023-01-12T21:59:32.077Z,1.63
2023-01-12T22:01:59.040Z,1.45
2023-01-12T22:04:25.972Z,2.20
2023-01-12T22:06:53.287Z,2.85
2023-01-12T22:09:20.834Z,1.52
2023-01-12T22:11:47.614Z,2.55
2023-01-12T22:14:14.325Z,1.90
2023-01-12T22:16:41.236Z,4.20
2023-01-12T22:19:08.109Z,5.00
2023-01-12T22:21:34.928Z,1.77
2023-01-12T22:24:02.896Z,2.88
2023-01-12T22:26:30.472Z,2.75
2023-01-12T22:28:57.620Z,1.85
2023-01-12T22:31:25.416Z,3.72
2023-01-12T22:33:58.607Z,5.07
2023-01-12T22:36:25.950Z,5.78
2023-01-12T22:38:52.729Z,3.33
2023-01-12T22:41:21.805Z,4.28
2023-01-12T22:43:49.488Z,2.33
2023-01-12T22:46:22.873Z,2.67
2023-01-12T22:48:51.287Z,3.15
2023-01-12T22:51:24.861Z,3.55
2023-01-12T22:53:52.166Z,4.85
2023-01-12T22:56:19.020Z,3.53
2023-01-12T22:58:47.771Z,4.93
2023-01-12T23:01:15.828Z,6.78
2023-01-12T23:03:42.884Z,3.53
2023-01-12T23:06:14.991Z,3.83
2023-01-12T23:08:43.138Z,4.88
2023-01-12T23:11:19.083Z,3.70
2023-01-12T23:13:46.663Z,5.43
2023-01-12T23:16:16.205Z,5.35
2023-01-12T23:18:44.829Z,5.70
2023-01-12T23:21:15.760Z,6.05
2023-01-12T23:23:51.258Z,7.90
2023-01-12T23:26:22.488Z,3.40
2023-01-12T23:28:51.820Z,6.40
2023-01-12T23:31:21.514Z,5.80
2023-01-12T23:33:48.966Z,4.07
2023-01-12T23:36:19.183Z,7.55
2023-01-12T23:38:46.109Z,5.93
2023-01-12T23:41:15.432Z,7.80
2023-01-12T23:43:43.225Z,5.18
2023-01-12T23:46:10.349Z,6.05
2023-01-12T23:48:37.200Z,7.55
2023-01-12T23:51:04.629Z,4.75
2023-01-12T23:53:31.852Z,5.93
2023-01-12T23:56:07.233Z,6.95
2023-01-12T23:58:34.012Z,5.88
